首页
METAR-TAF:

METAR-TAF

机场 :

Lafayette Regional Airport

拉法葉, 路易斯安那州, 美国

纬度: 30-12-08N, 经度: 091-59-35W, 海拔: 12米

当前天气观测

该预报发布于17分钟前的11:53 UTC
静风
温度 12°C
湿度 94%
气压 1017 hPa
能見度: 16.1公里
天空无云

METAR: KLFT 021153Z 00000KT 10SM CLR 12/11 A3003 RMK AO2 SLP168 T01220111 10139 20122 53012

时间: 07:10 (12:10 UTC)

预报

该预报发布于24分钟前的11:46 UTC
预报有效从02日的 12点(UTC)到 03日的 12点(UTC)
风速节,风向
能見度: 10公里
散云层高于15000英尺
从 02日的 1400点(UTC)
风速8节,风向
能見度: 10公里
多云层高于15000英尺
从 02日的 1600点(UTC)
风速8节,风向东南
能見度: 10公里
多云层高于15000英尺
从 03日的 0000点(UTC)
风速4节,风向南转南东
能見度: 10公里
多云层高于15000英尺

TAF: KLFT 021146Z 0212/0312 00000KT P6SM SCT150 FM021400 10008KT P6SM BKN150 FM021600 14008KT P6SM BKN150 FM030000 15004KT P6SM BKN150

超过4000个机场的气象观测和天气预报(METAR&TAF报告)。

可查询的气象台以黄色和红色小点在地图上表示。

将鼠标移到小点上方,可查看气象台名称。

然后点击查看天气观测和预报。

如需切换地图:点击带黑十字的绿色按钮放大地图;点击带横线的绿色按钮缩小地图;或者点击绿色箭头查看邻近地区的地图。


METAR-TAF: